createdAt,value
2023-01-20T00:00:54.651Z,1.81
2023-01-20T00:03:57.905Z,1.84
2023-01-20T00:07:00.627Z,1.86
2023-01-20T00:10:03.414Z,1.91
2023-01-20T00:13:07.307Z,1.92
2023-01-20T00:16:10.540Z,1.95
2023-01-20T00:19:14.189Z,1.98
2023-01-20T00:22:16.882Z,2.02
2023-01-20T00:25:19.629Z,2.03
2023-01-20T00:28:23.636Z,2.03
2023-01-20T00:31:27.516Z,1.98
2023-01-20T00:34:30.450Z,1.97
2023-01-20T00:37:33.083Z,1.94
2023-01-20T00:40:35.668Z,1.87
2023-01-20T00:43:39.891Z,1.81
2023-01-20T00:46:42.695Z,1.78
2023-01-20T00:49:45.258Z,1.81
2023-01-20T00:52:47.853Z,1.74
2023-01-20T00:55:50.623Z,1.79
2023-01-20T00:58:55.162Z,1.77
2023-01-20T01:01:58.144Z,1.71
2023-01-20T01:05:00.807Z,1.70
2023-01-20T01:08:03.457Z,1.61
2023-01-20T01:11:06.841Z,1.60
2023-01-20T01:14:11.167Z,1.64
2023-01-20T01:17:13.807Z,1.62
2023-01-20T01:20:16.525Z,1.65
2023-01-20T01:23:19.165Z,1.57
2023-01-20T01:26:22.031Z,1.62
2023-01-20T01:29:26.541Z,1.62
2023-01-20T01:32:29.173Z,1.67
2023-01-20T01:35:31.736Z,1.69
2023-01-20T01:38:34.274Z,1.72
2023-01-20T01:41:36.897Z,1.78
2023-01-20T01:45:21.313Z,1.79
2023-01-20T01:48:25.507Z,1.73
2023-01-20T01:51:30.788Z,1.73
2023-01-20T01:54:36.070Z,1.73
2023-01-20T01:57:38.951Z,1.78
2023-01-20T02:00:43.252Z,1.78
2023-01-20T02:03:52.984Z,1.80
2023-01-20T02:06:57.701Z,1.81
2023-01-20T02:10:00.686Z,1.86
2023-01-20T02:13:03.460Z,1.91
2023-01-20T02:16:13.780Z,1.98
2023-01-20T02:19:34.566Z,2.08
2023-01-20T02:22:43.923Z,2.14
2023-01-20T02:25:59.437Z,2.18
2023-01-20T02:29:20.216Z,2.30
2023-01-20T02:32:28.469Z,2.36
2023-01-20T02:35:36.729Z,2.36
2023-01-20T02:38:43.561Z,2.31
2023-01-20T02:41:53.001Z,2.27
2023-01-20T02:44:58.758Z,2.20
2023-01-20T02:48:03.979Z,2.15
2023-01-20T02:51:10.494Z,2.14
2023-01-20T02:54:14.952Z,2.14
2023-01-20T02:57:20.089Z,2.16
2023-01-20T03:00:26.727Z,2.10
2023-01-20T03:03:33.965Z,2.05
2023-01-20T03:06:39.143Z,2.07
2023-01-20T03:09:44.483Z,2.07
2023-01-20T03:12:48.094Z,2.07
2023-01-20T03:15:56.846Z,2.08
2023-01-20T03:19:00.766Z,2.07
2023-01-20T03:22:03.225Z,2.08
2023-01-20T03:25:06.924Z,2.03
2023-01-20T03:28:09.932Z,2.04
2023-01-20T03:31:18.006Z,2.02
2023-01-20T03:34:24.005Z,1.99
2023-01-20T03:37:26.570Z,2.03
2023-01-20T03:40:33.107Z,2.10
2023-01-20T03:43:43.978Z,2.25
2023-01-20T03:46:49.137Z,2.25
2023-01-20T03:49:57.083Z,1.94
2023-01-20T03:53:02.887Z,2.09
2023-01-20T03:56:08.785Z,2.17
2023-01-20T03:59:14.256Z,2.09
2023-01-20T04:02:16.997Z,2.07
2023-01-20T04:05:21.096Z,2.10
2023-01-20T04:08:25.504Z,2.20
2023-01-20T04:11:28.184Z,2.15
2023-01-20T04:14:30.839Z,2.14
2023-01-20T04:17:33.489Z,2.13
2023-01-20T04:20:37.510Z,2.14
2023-01-20T04:23:41.386Z,2.19
2023-01-20T04:26:43.763Z,2.22
2023-01-20T04:29:46.410Z,1.86
2023-01-20T04:33:04.357Z,1.79
2023-01-20T04:36:08.754Z,1.66
2023-01-20T04:39:11.417Z,1.53
2023-01-20T04:42:14.055Z,1.58
2023-01-20T04:45:17.859Z,1.62
2023-01-20T04:48:20.398Z,1.71
2023-01-20T04:51:24.268Z,1.77
2023-01-20T04:54:26.869Z,1.70
2023-01-20T04:57:29.573Z,1.90
2023-01-20T05:00:32.323Z,2.01
2023-01-20T05:03:35.021Z,2.19
2023-01-20T05:06:42.616Z,2.12
2023-01-20T05:09:45.854Z,2.17
2023-01-20T05:12:48.627Z,2.11
2023-01-20T05:15:51.347Z,2.05
2023-01-20T05:18:55.088Z,2.08
2023-01-20T05:22:00.384Z,2.04
2023-01-20T05:25:03.205Z,2.01
2023-01-20T05:28:05.870Z,2.06
2023-01-20T05:31:08.634Z,1.98
2023-01-20T05:34:11.426Z,1.99
2023-01-20T05:37:17.885Z,1.91
2023-01-20T05:40:20.556Z,1.84
2023-01-20T05:43:23.123Z,1.90
2023-01-20T05:46:25.833Z,1.99
2023-01-20T05:49:28.499Z,2.02
2023-01-20T05:52:32.544Z,2.04
2023-01-20T05:55:35.386Z,2.03
2023-01-20T05:58:38.005Z,2.00
2023-01-20T06:01:41.067Z,1.94
2023-01-20T06:04:43.894Z,1.85
2023-01-20T06:07:49.571Z,1.65
2023-01-20T06:10:53.789Z,1.58
2023-01-20T06:13:56.460Z,1.69
2023-01-20T06:16:59.001Z,1.71
2023-01-20T06:20:01.712Z,1.72
2023-01-20T06:23:05.834Z,1.87
2023-01-20T06:26:12.780Z,1.91
2023-01-20T06:29:15.482Z,1.88
2023-01-20T06:32:18.116Z,1.64
2023-01-20T06:35:21.559Z,1.60
2023-01-20T06:38:26.644Z,1.61
2023-01-20T06:41:29.249Z,1.57
2023-01-20T06:44:31.958Z,1.65
2023-01-20T06:47:34.567Z,1.71
2023-01-20T06:50:37.197Z,1.68
2023-01-20T06:53:41.657Z,1.64
2023-01-20T06:56:44.326Z,1.52
2023-01-20T06:59:46.933Z,1.55
2023-01-20T07:02:49.511Z,1.76
2023-01-20T07:05:55.338Z,1.90
2023-01-20T07:09:00.848Z,2.01
2023-01-20T07:12:08.605Z,2.12
2023-01-20T07:15:12.030Z,2.18
2023-01-20T07:18:40.035Z,2.12
2023-01-20T07:21:46.263Z,2.22
2023-01-20T07:24:50.247Z,2.11
2023-01-20T07:27:53.144Z,2.15
2023-01-20T07:35:31.827Z,2.14
2023-01-20T07:38:35.581Z,2.20
2023-01-20T07:41:45.141Z,2.13
2023-01-20T07:44:49.511Z,2.21
2023-01-20T07:48:44.279Z,2.28
2023-01-20T07:52:00.120Z,2.48
2023-01-20T07:55:08.099Z,2.62
2023-01-20T07:58:25.797Z,2.89
2023-01-20T08:01:37.134Z,3.26
2023-01-20T08:09:04.328Z,3.84
2023-01-20T08:12:38.594Z,3.82
2023-01-20T08:15:42.623Z,3.78
2023-01-20T08:18:45.729Z,3.88
2023-01-20T08:21:48.582Z,3.87
2023-01-20T08:24:51.315Z,3.79
2023-01-20T08:28:30.408Z,3.72
2023-01-20T08:31:36.351Z,3.52
2023-01-20T08:35:08.487Z,3.54
2023-01-20T08:42:25.029Z,3.68
2023-01-20T08:45:57.363Z,3.66
2023-01-20T08:49:11.893Z,3.76
2023-01-20T08:52:22.701Z,3.97
2023-01-20T08:55:25.299Z,4.05
2023-01-20T08:58:28.676Z,4.12
2023-01-20T09:01:33.639Z,4.07
2023-01-20T09:04:38.539Z,3.93
2023-01-20T09:07:43.630Z,3.98
2023-01-20T09:10:46.655Z,4.12
2023-01-20T09:13:49.787Z,4.08
2023-01-20T09:16:52.874Z,3.88
2023-01-20T09:19:57.067Z,3.79
2023-01-20T09:23:02.526Z,3.71
2023-01-20T09:26:06.552Z,3.78
2023-01-20T09:29:12.724Z,3.85
2023-01-20T09:32:18.474Z,3.97
2023-01-20T09:35:22.720Z,4.12
2023-01-20T09:38:43.617Z,4.28
2023-01-20T09:42:06.301Z,4.46
2023-01-20T09:45:24.765Z,4.36
2023-01-20T09:48:53.451Z,4.37
2023-01-20T09:52:28.809Z,4.31
2023-01-20T09:55:42.719Z,4.38
2023-01-20T09:58:49.829Z,4.30
2023-01-20T10:01:58.883Z,4.17
2023-01-20T10:05:09.746Z,4.08
2023-01-20T10:08:17.103Z,3.95
2023-01-20T10:11:21.793Z,3.88
2023-01-20T10:14:32.217Z,3.83
2023-01-20T10:17:45.520Z,3.78
2023-01-20T10:20:56.063Z,3.79
2023-01-20T10:24:02.334Z,3.66
2023-01-20T10:27:07.771Z,3.77
2023-01-20T10:30:12.373Z,3.68
2023-01-20T10:33:20.174Z,3.53
2023-01-20T10:36:27.544Z,3.38
2023-01-20T10:39:39.009Z,3.20
2023-01-20T10:42:41.811Z,3.11
2023-01-20T10:46:02.502Z,3.00
2023-01-20T10:49:21.353Z,3.05
2023-01-20T10:52:36.677Z,3.16
2023-01-20T10:55:54.372Z,3.28
2023-01-20T10:59:01.388Z,3.39
2023-01-20T11:02:31.621Z,3.51
2023-01-20T11:05:38.367Z,3.58
2023-01-20T11:08:44.459Z,3.45
2023-01-20T11:11:51.929Z,3.55
2023-01-20T11:15:01.236Z,3.85
2023-01-20T11:18:28.981Z,4.35
2023-01-20T11:21:37.771Z,4.85
2023-01-20T11:24:44.574Z,5.51
2023-01-20T11:27:48.841Z,6.09
2023-01-20T11:30:53.410Z,6.53
2023-01-20T11:33:58.975Z,7.51
2023-01-20T11:37:18.890Z,8.11
2023-01-20T11:40:24.536Z,7.52
2023-01-20T11:43:45.328Z,7.05
2023-01-20T11:46:48.879Z,6.68
2023-01-20T11:50:27.360Z,6.76
2023-01-20T11:53:32.050Z,6.73
2023-01-20T11:56:40.044Z,6.05
2023-01-20T11:59:51.457Z,5.79
2023-01-20T12:02:58.615Z,5.53
2023-01-20T12:06:04.645Z,5.49
2023-01-20T12:09:12.608Z,5.26
2023-01-20T12:12:21.527Z,5.06
2023-01-20T12:15:37.127Z,5.11
2023-01-20T12:19:04.854Z,5.19
2023-01-20T12:22:14.955Z,5.07
2023-01-20T12:25:34.344Z,4.94
2023-01-20T12:29:05.087Z,5.07
2023-01-20T12:32:11.487Z,5.48
2023-01-20T12:35:24.708Z,5.64
2023-01-20T12:38:33.916Z,5.65
2023-01-20T12:42:30.241Z,5.63
2023-01-20T12:46:04.374Z,5.77
2023-01-20T12:49:32.022Z,5.85
2023-01-20T12:53:02.199Z,5.50
2023-01-20T12:56:13.455Z,5.30
2023-01-20T12:59:23.663Z,5.14
2023-01-20T13:02:45.814Z,4.85
2023-01-20T13:06:10.338Z,5.05
2023-01-20T13:09:26.749Z,5.04
2023-01-20T13:12:37.010Z,4.59
2023-01-20T13:15:43.583Z,4.45
2023-01-20T13:19:03.403Z,4.49
2023-01-20T13:22:12.538Z,4.68
2023-01-20T13:25:17.490Z,4.75
2023-01-20T13:28:21.894Z,4.66
2023-01-20T13:31:34.285Z,4.60
2023-01-20T13:34:40.618Z,4.73
2023-01-20T13:37:49.757Z,4.95
2023-01-20T13:40:54.737Z,5.01
2023-01-20T13:43:57.530Z,5.25
2023-01-20T13:47:00.112Z,5.31
2023-01-20T13:50:23.503Z,5.32
2023-01-20T13:53:29.018Z,4.71
2023-01-20T13:56:33.745Z,5.20
2023-01-20T13:59:37.396Z,5.63
2023-01-20T14:02:41.071Z,5.81
2023-01-20T14:05:43.667Z,6.01
2023-01-20T14:08:49.645Z,6.63
2023-01-20T14:15:40.029Z,14.60
2023-01-20T14:18:42.959Z,16.91
2023-01-20T14:21:45.657Z,16.21
2023-01-20T14:24:52.619Z,12.30
2023-01-20T14:27:55.797Z,9.68
2023-01-20T14:31:19.718Z,8.14
2023-01-20T14:34:29.204Z,7.30
2023-01-20T14:37:33.579Z,6.88
2023-01-20T14:40:37.598Z,6.62
2023-01-20T14:43:46.940Z,6.37
2023-01-20T14:46:51.193Z,6.69
2023-01-20T14:49:54.992Z,6.36
2023-01-20T14:52:57.851Z,5.80
2023-01-20T14:56:03.114Z,5.36
2023-01-20T14:59:05.796Z,4.89
2023-01-20T15:02:18.196Z,4.49
2023-01-20T15:05:31.324Z,4.14
2023-01-20T15:08:56.734Z,4.06
2023-01-20T15:12:37.858Z,3.96
2023-01-20T15:15:43.446Z,3.82
2023-01-20T15:19:33.261Z,3.55
2023-01-20T15:22:35.925Z,3.37
2023-01-20T15:25:38.540Z,3.17
2023-01-20T15:28:45.158Z,3.03
2023-01-20T15:31:47.862Z,2.91
2023-01-20T15:34:50.537Z,2.75
2023-01-20T15:37:55.155Z,2.56
2023-01-20T15:40:57.999Z,2.40
2023-01-20T15:44:02.278Z,2.39
2023-01-20T15:47:13.968Z,2.23
2023-01-20T15:50:20.896Z,2.08
2023-01-20T15:53:23.630Z,1.99
2023-01-20T15:56:28.034Z,1.93
2023-01-20T15:59:32.458Z,1.98
2023-01-20T16:02:35.250Z,1.92
2023-01-20T16:05:37.889Z,1.73
2023-01-20T16:08:40.735Z,1.54
2023-01-20T16:11:43.893Z,1.29
2023-01-20T16:14:47.969Z,1.21
2023-01-20T16:17:52.719Z,1.16
2023-01-20T16:20:55.426Z,1.12
2023-01-20T16:23:58.081Z,1.05
2023-01-20T16:27:00.731Z,0.95
2023-01-20T16:30:05.658Z,0.92
2023-01-20T16:33:16.996Z,0.81
2023-01-20T16:36:21.155Z,0.78
2023-01-20T16:39:23.908Z,0.63
2023-01-20T16:42:26.541Z,0.56
2023-01-20T16:45:31.525Z,0.47
2023-01-20T16:48:34.247Z,0.39
2023-01-20T16:51:37.020Z,0.27
2023-01-20T16:54:39.822Z,0.31
2023-01-20T16:57:44.100Z,0.24
2023-01-20T17:00:48.241Z,0.12
2023-01-20T17:03:52.358Z,0.06
2023-01-20T17:06:55.140Z,-0.02
2023-01-20T17:09:58.452Z,-0.04
2023-01-20T17:13:01.155Z,-0.09
2023-01-20T17:16:05.788Z,-0.13
2023-01-20T17:19:10.100Z,-0.09
2023-01-20T17:22:12.914Z,-0.15
2023-01-20T17:25:17.876Z,-0.18
2023-01-20T17:28:20.690Z,-0.21
2023-01-20T17:31:26.018Z,-0.28
2023-01-20T17:34:28.921Z,-0.26
2023-01-20T17:37:31.651Z,-0.20
2023-01-20T17:40:34.285Z,-0.26
2023-01-20T17:43:38.479Z,-0.25
2023-01-20T17:46:42.430Z,-0.26
2023-01-20T17:49:45.288Z,-0.22
2023-01-20T17:52:48.086Z,-0.32
2023-01-20T17:55:55.222Z,-0.34
2023-01-20T17:59:03.011Z,-0.39
2023-01-20T18:02:07.102Z,-0.43
2023-01-20T18:05:10.335Z,-0.43
2023-01-20T18:08:13.897Z,-0.50
2023-01-20T18:11:16.705Z,-0.57
2023-01-20T18:14:19.423Z,-0.65
2023-01-20T18:17:23.614Z,-0.62
2023-01-20T18:20:26.504Z,-0.66
2023-01-20T18:23:29.388Z,-0.68
2023-01-20T18:26:34.129Z,-0.66
2023-01-20T18:29:36.897Z,-0.60
2023-01-20T18:32:41.193Z,-0.60
2023-01-20T18:35:43.924Z,-0.77
2023-01-20T18:38:50.549Z,-0.78
2023-01-20T18:41:53.388Z,-0.82
2023-01-20T18:44:55.978Z,-0.81
2023-01-20T18:47:59.949Z,-0.87
2023-01-20T18:51:02.607Z,-0.79
2023-01-20T18:54:07.377Z,-0.74
2023-01-20T18:57:10.013Z,-0.66
2023-01-20T19:00:13.654Z,-0.75
2023-01-20T19:03:18.777Z,-0.84
2023-01-20T19:06:22.870Z,-0.85
2023-01-20T19:09:26.162Z,-0.74
2023-01-20T19:12:28.761Z,-0.78
2023-01-20T19:15:33.584Z,-0.78
2023-01-20T19:18:38.246Z,-0.64
2023-01-20T19:21:40.963Z,-0.56
2023-01-20T19:24:43.782Z,-0.50
2023-01-20T19:27:46.400Z,-0.49
2023-01-20T19:30:49.179Z,-0.60
2023-01-20T19:33:54.117Z,-0.62
2023-01-20T19:36:57.489Z,-0.67
2023-01-20T19:40:00.257Z,-0.68
2023-01-20T19:43:02.949Z,-0.69
2023-01-20T19:46:06.847Z,-0.70
2023-01-20T19:49:11.382Z,-0.78
2023-01-20T19:52:14.673Z,-0.78
2023-01-20T19:55:17.416Z,-0.94
2023-01-20T19:58:20.047Z,-1.04
2023-01-20T20:01:24.161Z,-1.06
2023-01-20T20:04:28.418Z,-1.10
2023-01-20T20:07:31.013Z,-1.03
2023-01-20T20:10:33.690Z,-0.95
2023-01-20T20:13:36.547Z,-0.95
2023-01-20T20:16:39.828Z,-0.84
2023-01-20T20:19:44.161Z,-0.82
2023-01-20T20:22:46.826Z,-0.82
2023-01-20T20:25:49.813Z,-0.81
2023-01-20T20:28:53.202Z,-0.83
2023-01-20T20:31:55.822Z,-0.75
2023-01-20T20:35:00.389Z,-0.74
2023-01-20T20:38:03.267Z,-0.70
2023-01-20T20:41:07.828Z,-0.53
2023-01-20T20:44:11.704Z,-0.46
2023-01-20T20:47:14.095Z,-0.43
2023-01-20T20:50:19.524Z,-0.45
2023-01-20T20:53:22.594Z,-0.43
2023-01-20T20:56:27.893Z,-0.39
2023-01-20T20:59:30.516Z,-0.28
2023-01-20T21:02:33.225Z,-0.23
2023-01-20T21:05:37.244Z,-0.10
2023-01-20T21:08:40.271Z,-0.07
2023-01-20T21:11:43.364Z,-0.05
2023-01-20T21:14:46.433Z,0.06
2023-01-20T21:17:49.046Z,0.10
2023-01-20T21:20:57.464Z,0.14
2023-01-20T21:24:00.201Z,0.20
2023-01-20T21:27:02.907Z,0.20
2023-01-20T21:30:06.316Z,0.27
2023-01-20T21:33:13.237Z,0.28
2023-01-20T21:36:17.156Z,0.29
2023-01-20T21:39:20.506Z,0.34
2023-01-20T21:42:23.079Z,0.33
2023-01-20T21:45:25.665Z,0.31
2023-01-20T21:48:45.633Z,0.34
2023-01-20T21:52:07.243Z,0.40
2023-01-20T21:55:11.447Z,0.42
2023-01-20T21:58:14.445Z,0.39
2023-01-20T22:01:17.109Z,0.40
2023-01-20T22:04:20.187Z,0.36
2023-01-20T22:07:24.471Z,0.28
2023-01-20T22:10:27.093Z,0.24
2023-01-20T22:13:29.895Z,0.19
2023-01-20T22:16:33.016Z,0.14
2023-01-20T22:19:36.232Z,0.06
2023-01-20T22:22:40.263Z,0.07
2023-01-20T22:25:42.912Z,0.10
2023-01-20T22:28:45.514Z,0.03
2023-01-20T22:31:48.467Z,0.01
2023-01-20T22:34:51.047Z,0.04
2023-01-20T22:37:55.020Z,0.11
2023-01-20T22:41:03.269Z,0.12
2023-01-20T22:44:06.029Z,0.12
2023-01-20T22:47:10.780Z,0.16
2023-01-20T22:50:13.824Z,0.18
2023-01-20T22:53:17.824Z,0.12
2023-01-20T22:56:24.441Z,0.04
2023-01-20T22:59:27.449Z,-0.08
2023-01-20T23:02:30.040Z,-0.09
2023-01-20T23:05:32.727Z,-0.26
2023-01-20T23:08:36.950Z,-0.44
2023-01-20T23:11:40.159Z,-0.57
2023-01-20T23:15:01.314Z,-0.72
2023-01-20T23:18:04.113Z,-0.71
2023-01-20T23:21:07.024Z,-0.70
2023-01-20T23:24:10.910Z,-0.66
2023-01-20T23:27:13.410Z,-0.60
2023-01-20T23:30:16.730Z,-0.55
2023-01-20T23:33:19.457Z,-0.48
2023-01-20T23:36:23.734Z,-0.33
2023-01-20T23:39:27.662Z,-0.36
2023-01-20T23:42:30.202Z,-0.39
2023-01-20T23:45:32.751Z,-0.41
2023-01-20T23:48:36.120Z,-0.46
2023-01-20T23:51:38.896Z,-0.49
2023-01-20T23:54:42.914Z,-0.46
2023-01-20T23:57:45.450Z,-0.43
